Time;durP1;ratioP1;P1;durP2;ratioP2;P2;SDS_P1;SDS_P2;PMS_P1;PMS_P2;Temp;Humidity;BMP_temperature;BMP_pressure;BME280_temperature;BME280_humidity;BME280_pressure;Samples;Min_cycle;Max_cycle;Signal;HPM_P1;HPM_P2
2022/09/21 00:00:37;;;;;;;3.65;3.08;;;;;;;7.21;100.00;102431.69;5044769;28;20195;-49
2022/09/21 00:03:03;;;;;;;3.92;3.05;;;;;;;7.19;100.00;102433.47;5040227;28;20183;-49
2022/09/21 00:05:28;;;;;;;3.30;2.85;;;;;;;7.19;100.00;102438.78;5039628;28;20184;-50
2022/09/21 00:07:54;;;;;;;3.78;2.80;;;;;;;7.21;100.00;102439.69;5035316;28;20275;-48
2022/09/21 00:10:20;;;;;;;3.47;3.10;;;;;;;7.20;100.00;102438.81;5032184;28;20685;-49
2022/09/21 00:12:47;;;;;;;2.78;2.47;;;;;;;7.22;100.00;102452.16;5042138;28;20290;-50
2022/09/21 00:15:18;;;;;;;4.72;2.90;;;;;;;7.17;100.00;102451.22;5043562;28;20211;-49
2022/09/21 00:17:46;;;;;;;4.50;2.72;;;;;;;7.16;100.00;102445.00;5038638;28;20623;-50
2022/09/21 00:20:13;;;;;;;4.82;2.78;;;;;;;7.15;100.00;102445.91;5032085;28;20228;-47
2022/09/21 00:22:38;;;;;;;3.20;2.72;;;;;;;7.08;100.00;102440.56;5032362;28;20402;-50
2022/09/21 00:25:04;;;;;;;4.88;3.10;;;;;;;6.98;100.00;102440.53;5031783;28;20353;-49
2022/09/21 00:27:30;;;;;;;4.35;2.83;;;;;;;7.06;100.00;102445.00;5039508;28;20195;-49
2022/09/21 00:29:56;;;;;;;4.25;2.83;;;;;;;7.07;100.00;102449.44;5049915;28;20215;-50
2022/09/21 00:32:24;;;;;;;4.45;2.92;;;;;;;7.05;100.00;102441.44;5034605;28;20271;-49
2022/09/21 00:34:50;;;;;;;3.00;2.70;;;;;;;7.02;100.00;102441.44;5034354;28;20381;-51
2022/09/21 00:37:17;;;;;;;3.58;2.75;;;;;;;7.07;100.00;102436.13;5034413;28;20520;-50
2022/09/21 00:39:42;;;;;;;3.40;2.95;;;;;;;7.06;100.00;102440.53;5033990;28;20254;-50
2022/09/21 00:42:22;;;;;;;4.00;2.78;;;;;;;7.02;100.00;102441.44;5041269;28;20215;-50
2022/09/21 00:44:49;;;;;;;3.13;2.83;;;;;;;6.92;100.00;102435.19;5042320;28;20295;-51
2022/09/21 00:47:18;;;;;;;3.22;2.85;;;;;;;6.90;100.00;102436.06;5035881;28;20241;-50
2022/09/21 00:49:48;;;;;;;3.78;2.60;;;;;;;6.89;100.00;102440.53;5040267;28;20289;-53
2022/09/21 00:52:16;;;;;;;2.75;2.42;;;;;;;6.93;100.00;102438.72;5039813;28;20230;-54
2022/09/21 00:54:56;;;;;;;2.90;2.60;;;;;;;6.94;100.00;102444.06;5036374;28;20254;-53
2022/09/21 00:57:25;;;;;;;3.22;2.80;;;;;;;6.85;100.00;102437.84;5037836;28;20212;-50
2022/09/21 00:59:56;;;;;;;5.05;3.05;;;;;;;6.87;100.00;102441.41;5036741;28;20211;-48
2022/09/21 01:02:22;;;;;;;3.60;2.40;;;;;;;6.84;100.00;102446.72;5036312;28;20183;-54
2022/09/21 01:04:48;;;;;;;3.90;2.50;;;;;;;6.85;100.00;102438.72;5034243;28;20191;-47
2022/09/21 01:07:18;;;;;;;3.40;2.80;;;;;;;6.86;100.00;102443.16;5040974;28;20179;-50
2022/09/21 01:09:48;;;;;;;5.20;2.65;;;;;;;6.83;100.00;102451.16;5038810;28;20590;-48
2022/09/21 01:12:29;;;;;;;2.60;2.38;;;;;;;6.75;100.00;102453.78;5041771;28;20190;-48
2022/09/21 01:14:57;;;;;;;4.43;2.40;;;;;;;6.79;100.00;102446.69;5036020;28;20222;-53
2022/09/21 01:17:47;;;;;;;4.05;2.50;;;;;;;6.80;100.00;102451.16;5032164;28;20211;-54
2022/09/21 01:20:25;;;;;;;3.08;2.78;;;;;;;6.76;100.00;102452.03;5041061;28;20193;-53
2022/09/21 01:23:05;;;;;;;3.13;2.50;;;;;;;6.70;100.00;102447.53;5034798;28;20182;-49
2022/09/21 01:25:52;;;;;;;3.97;2.50;;;;;;;6.72;100.00;102451.09;5041217;28;20201;-54
2022/09/21 01:28:28;;;;;;;2.88;2.42;;;;;;;6.68;100.00;102457.31;5040250;28;20262;-48
2022/09/21 01:30:59;;;;;;;3.85;2.78;;;;;;;6.66;100.00;102448.41;5042450;28;20186;-52
2022/09/21 01:33:31;;;;;;;3.10;2.30;;;;;;;6.66;100.00;102452.84;5039070;28;20294;-48
2022/09/21 01:36:07;;;;;;;4.20;2.55;;;;;;;6.60;100.00;102449.28;5039891;28;20199;-48
2022/09/21 01:38:39;;;;;;;3.15;2.53;;;;;;;6.65;100.00;102441.31;5049640;28;20207;-48
2022/09/21 01:41:08;;;;;;;3.80;2.83;;;;;;;6.65;100.00;102451.97;5042082;28;20196;-48
2022/09/21 01:43:37;;;;;;;4.00;2.55;;;;;;;6.65;100.00;102445.72;5041987;28;20179;-55
2022/09/21 01:46:06;;;;;;;2.25;2.05;;;;;;;6.64;100.00;102446.63;5036755;28;20219;-49
2022/09/21 01:48:35;;;;;;;3.10;2.28;;;;;;;6.59;100.00;102449.28;5034579;28;20709;-51
2022/09/21 01:51:06;;;;;;;2.25;2.08;;;;;;;6.56;100.00;102447.50;5045485;28;20207;-50
2022/09/21 01:53:48;;;;;;;4.65;2.60;;;;;;;6.57;100.00;102456.38;5040306;28;20208;-49
2022/09/21 01:56:35;;;;;;;4.03;2.40;;;;;;;6.57;100.00;102451.03;5032917;28;20234;-48
2022/09/21 01:59:08;;;;;;;3.17;2.30;;;;;;;6.54;100.00;102443.94;5037015;28;20251;-50
2022/09/21 02:01:40;;;;;;;2.30;2.10;;;;;;;6.56;100.00;102442.19;5034134;28;20188;-49
2022/09/21 02:04:10;;;;;;;3.80;2.50;;;;;;;6.42;100.00;102448.31;5040381;28;20184;-50
2022/09/21 02:06:38;;;;;;;3.30;2.95;;;;;;;6.33;100.00;102447.38;5032327;28;20661;-49
2022/09/21 02:09:04;;;;;;;6.35;2.60;;;;;;;6.31;100.00;102451.78;5030016;28;20298;-49
2022/09/21 02:11:29;;;;;;;3.15;2.50;;;;;;;6.37;100.00;102448.28;5034938;28;20646;-50
2022/09/21 02:13:55;;;;;;;3.05;2.28;;;;;;;6.38;100.00;102452.72;5035438;28;20294;-50
2022/09/21 02:16:43;;;;;;;3.10;2.50;;;;;;;6.43;100.00;102458.06;5037601;28;20568;-49
2022/09/21 02:19:21;;;;;;;3.22;2.50;;;;;;;6.38;100.00;102456.28;5034509;28;20231;-49
2022/09/21 02:21:54;;;;;;;2.80;2.60;;;;;;;6.37;100.00;102453.63;5030835;28;20184;-50
2022/09/21 02:24:38;;;;;;;3.90;2.53;;;;;;;6.38;100.00;102450.06;5039801;28;20665;-49
2022/09/21 02:27:22;;;;;;;3.03;2.60;;;;;;;6.35;100.00;102453.59;5039656;28;20236;-49
2022/09/21 02:30:06;;;;;;;3.05;2.30;;;;;;;6.32;100.00;102453.59;5037584;28;20216;-52
2022/09/21 02:32:45;;;;;;;2.95;2.47;;;;;;;6.25;100.00;102450.88;5037920;28;20191;-51
2022/09/21 02:35:30;;;;;;;2.75;2.55;;;;;;;6.25;100.00;102454.41;5032626;28;20203;-50
2022/09/21 02:38:07;;;;;;;2.80;2.50;;;;;;;6.22;100.00;102466.84;5033786;28;20200;-49
2022/09/21 02:40:45;;;;;;;3.30;2.63;;;;;;;6.12;100.00;102464.13;5035436;28;20188;-52
2022/09/21 02:43:23;;;;;;;4.18;2.80;;;;;;;6.03;100.00;102455.19;5041467;28;20643;-49
2022/09/21 02:45:57;;;;;;;3.95;2.83;;;;;;;6.01;100.00;102451.63;5039021;28;20240;-52
2022/09/21 02:48:49;;;;;;;4.97;2.65;;;;;;;6.02;100.00;102459.63;5058158;28;20222;-51
2022/09/21 02:51:24;;;;;;;4.20;2.53;;;;;;;6.03;100.00;102458.72;5035275;28;20670;-53
2022/09/21 02:53:53;;;;;;;4.07;2.88;;;;;;;6.05;100.00;102448.09;5039400;28;20211;-49
2022/09/21 02:56:20;;;;;;;3.92;2.83;;;;;;;5.97;100.00;102458.69;5036657;28;20176;-54
2022/09/21 02:58:55;;;;;;;3.80;2.50;;;;;;;6.06;100.00;102460.53;5035132;28;20203;-48
2022/09/21 03:01:23;;;;;;;3.33;2.80;;;;;;;5.97;100.00;102450.72;5041088;28;20191;-52
2022/09/21 03:03:48;;;;;;;4.15;2.70;;;;;;;5.94;100.00;102466.59;5035270;28;20628;-48
2022/09/21 03:06:14;;;;;;;2.58;2.38;;;;;;;5.93;100.00;102468.38;5045193;28;20198;-49
2022/09/21 03:08:39;;;;;;;3.17;2.63;;;;;;;5.92;100.00;102457.72;5037807;28;20273;-50
2022/09/21 03:11:05;;;;;;;3.58;2.60;;;;;;;5.95;100.00;102460.47;5036147;28;20183;-53
2022/09/21 03:13:31;;;;;;;2.90;2.58;;;;;;;5.85;100.00;102466.53;5033712;28;20251;-54
2022/09/21 03:16:06;;;;;;;3.63;2.80;;;;;;;5.82;100.00;102472.75;5036952;28;20804;-48
2022/09/21 03:18:31;;;;;;;5.18;2.95;;;;;;;5.82;100.00;102466.53;5038634;28;20790;-54
2022/09/21 03:20:57;;;;;;;4.55;3.00;;;;;;;5.76;100.00;102472.69;5037362;28;20207;-50
2022/09/21 03:23:23;;;;;;;3.00;2.70;;;;;;;5.81;100.00;102476.25;5034843;28;20187;-50
2022/09/21 03:25:51;;;;;;;2.75;2.47;;;;;;;5.81;100.00;102467.41;5036863;28;20277;-50
2022/09/21 03:28:17;;;;;;;3.08;2.75;;;;;;;5.82;100.00;102471.84;5038643;28;20207;-50
2022/09/21 03:30:43;;;;;;;4.60;2.88;;;;;;;5.77;100.00;102466.47;5042541;28;20329;-48
2022/09/21 03:33:09;;;;;;;3.67;2.40;;;;;;;5.78;100.00;102477.13;5043432;28;20187;-50
2022/09/21 03:35:34;;;;;;;2.85;2.63;;;;;;;5.74;100.00;102477.09;5033259;28;20179;-50
2022/09/21 03:38:01;;;;;;;3.97;2.60;;;;;;;5.60;100.00;102466.34;5040925;28;20187;-54
2022/09/21 03:40:27;;;;;;;5.57;2.83;;;;;;;5.52;100.00;102470.69;5039928;28;20187;-52
2022/09/21 03:42:53;;;;;;;2.80;2.50;;;;;;;5.54;100.00;102476.94;5039474;28;20274;-52
2022/09/21 03:45:25;;;;;;;3.30;2.65;;;;;;;5.53;100.00;102467.16;5037350;28;20211;-50
2022/09/21 03:47:54;;;;;;;2.83;2.50;;;;;;;5.57;100.00;102476.94;5044119;28;20175;-47
2022/09/21 03:50:20;;;;;;;4.07;2.92;;;;;;;5.50;100.00;102480.44;5042519;28;20556;-49
2022/09/21 03:52:45;;;;;;;3.45;2.50;;;;;;;5.35;100.00;102478.50;5048074;28;20178;-49
2022/09/21 03:55:11;;;;;;;2.50;2.30;;;;;;;5.43;100.00;102476.81;5043423;28;20202;-53
2022/09/21 03:57:37;;;;;;;2.72;2.53;;;;;;;5.47;100.00;102480.41;5039595;28;20188;-50
2022/09/21 04:00:07;;;;;;;2.50;2.17;;;;;;;5.46;100.00;102482.16;5043223;28;20368;-52
2022/09/21 04:02:33;;;;;;;3.40;2.50;;;;;;;5.50;100.00;102483.97;5043266;28;20191;-48
2022/09/21 04:04:58;;;;;;;2.97;2.55;;;;;;;5.47;100.00;102483.06;5038144;28;20533;-49
2022/09/21 04:07:25;;;;;;;6.40;2.80;;;;;;;5.37;100.00;102490.94;5043552;28;20230;-51
2022/09/21 04:09:50;;;;;;;3.90;2.80;;;;;;;5.28;100.00;102488.19;5039476;28;20215;-49
2022/09/21 04:12:20;;;;;;;6.05;2.90;;;;;;;5.29;100.00;102483.75;5036840;28;20196;-50
2022/09/21 04:14:46;;;;;;;3.90;2.78;;;;;;;5.33;100.00;102488.22;5040506;28;20634;-50
2022/09/21 04:17:11;;;;;;;3.65;2.83;;;;;;;5.33;100.00;102485.56;5038940;28;20183;-49
2022/09/21 04:19:37;;;;;;;3.03;2.72;;;;;;;5.29;100.00;102487.34;5043163;28;20203;-49
2022/09/21 04:22:03;;;;;;;3.28;2.33;;;;;;;5.25;100.00;102480.19;5046518;28;20242;-48
2022/09/21 04:24:29;;;;;;;2.40;2.20;;;;;;;5.19;100.00;102485.44;5048971;28;20614;-51
2022/09/21 04:26:55;;;;;;;4.22;2.85;;;;;;;5.14;100.00;102481.84;5045040;28;20195;-49
2022/09/21 04:29:20;;;;;;;4.43;2.50;;;;;;;5.21;100.00;102478.38;5024186;28;20203;-50
2022/09/21 04:31:46;;;;;;;2.72;2.40;;;;;;;5.30;100.00;102485.56;5043585;28;20650;-48
2022/09/21 04:34:12;;;;;;;3.25;2.30;;;;;;;5.27;100.00;102485.50;5042489;28;20217;-49
2022/09/21 04:36:38;;;;;;;2.60;2.40;;;;;;;5.19;100.00;102480.13;5036724;28;20191;-50
2022/09/21 04:39:04;;;;;;;4.45;2.60;;;;;;;5.17;100.00;102481.88;5037896;28;20578;-48
2022/09/21 04:41:30;;;;;;;3.28;2.90;;;;;;;5.06;100.00;102486.19;5034293;28;20186;-49
2022/09/21 04:43:55;;;;;;;3.58;2.70;;;;;;;4.98;100.00;102487.84;5034945;28;20192;-50
2022/09/21 04:46:21;;;;;;;5.38;3.03;;;;;;;5.08;100.00;102492.41;5037960;28;20211;-51
2022/09/21 04:48:47;;;;;;;2.40;2.22;;;;;;;5.03;100.00;102494.09;5035187;28;20203;-48
2022/09/21 04:51:14;;;;;;;3.00;2.33;;;;;;;5.12;100.00;102489.78;5036047;28;20200;-54
2022/09/21 04:53:41;;;;;;;3.38;2.70;;;;;;;5.11;100.00;102488.00;5033909;28;20581;-49
2022/09/21 04:56:13;;;;;;;2.58;2.38;;;;;;;5.12;100.00;102495.09;5036376;28;20267;-49
2022/09/21 04:58:38;;;;;;;4.00;3.03;;;;;;;5.05;100.00;102501.25;5041085;28;20299;-49
2022/09/21 05:01:05;;;;;;;2.90;2.65;;;;;;;5.05;100.00;102487.03;5042159;28;20274;-49
2022/09/21 05:03:30;;;;;;;2.97;2.60;;;;;;;5.06;100.00;102500.34;5037917;28;20183;-49
2022/09/21 05:05:56;;;;;;;4.75;2.60;;;;;;;5.08;100.00;102503.91;5039876;28;20328;-50
2022/09/21 05:11:11;;;;;;;2.97;2.30;;;;;;;5.10;100.00;102503.94;5035985;28;20188;-50
2022/09/21 05:13:38;;;;;;;3.85;3.10;;;;;;;5.12;100.00;102508.41;5040300;28;20203;-50
2022/09/21 05:16:04;;;;;;;2.80;2.50;;;;;;;5.09;100.00;102499.50;5042310;28;20183;-51
2022/09/21 05:18:29;;;;;;;4.25;2.42;;;;;;;5.12;100.00;102507.50;5042138;28;20560;-53
2022/09/21 05:20:59;;;;;;;3.03;2.65;;;;;;;5.10;100.00;102501.28;5041735;28;20216;-49
2022/09/21 05:23:25;;;;;;;2.65;2.45;;;;;;;5.12;100.00;102504.84;5040705;28;20248;-52
2022/09/21 05:25:51;;;;;;;3.42;3.03;;;;;;;5.01;100.00;102509.13;5040757;28;20188;-48
2022/09/21 05:28:18;;;;;;;6.22;3.10;;;;;;;4.98;100.00;102509.09;5037156;28;20290;-52
2022/09/21 05:31:12;;;;;;;4.85;3.40;;;;;;;5.07;100.00;102509.19;5036250;28;20187;-49
2022/09/21 05:33:43;;;;;;;5.32;2.70;;;;;;;5.10;100.00;102510.13;5041722;28;20213;-48
2022/09/21 05:36:41;;;;;;;6.00;3.33;;;;;;;5.15;100.00;102512.84;5048685;28;20260;-53
2022/09/21 05:39:07;;;;;;;3.35;2.70;;;;;;;5.08;100.00;102509.22;5038906;28;20215;-49
2022/09/21 05:41:33;;;;;;;5.22;2.50;;;;;;;5.12;100.00;102510.16;5043874;28;20312;-49
2022/09/21 05:43:59;;;;;;;4.30;3.05;;;;;;;5.08;100.00;102505.69;5049619;28;20186;-50
2022/09/21 05:46:38;;;;;;;3.38;2.97;;;;;;;5.14;100.00;102517.28;5039493;28;20198;-50
2022/09/21 05:49:15;;;;;;;4.95;3.08;;;;;;;5.21;100.00;102517.34;5034001;28;20579;-50
2022/09/21 05:52:08;;;;;;;4.32;3.17;;;;;;;5.30;100.00;102510.34;5036767;28;20782;-50
2022/09/21 05:55:15;;;;;;;6.00;3.42;;;;;;;5.58;100.00;102521.28;5035590;28;20297;-53
2022/09/21 05:57:58;;;;;;;4.10;3.45;;;;;;;6.11;100.00;102523.53;5033460;28;20206;-50
2022/09/21 06:00:24;;;;;;;4.20;3.33;;;;;;;6.63;100.00;102512.34;5028546;28;20558;-51
2022/09/21 06:03:05;;;;;;;5.22;3.88;;;;;;;6.90;100.00;102514.22;5045013;28;20262;-53
2022/09/21 06:05:30;;;;;;;6.57;3.83;;;;;;;7.03;100.00;102509.84;5035269;28;20188;-48
2022/09/21 06:07:56;;;;;;;4.10;3.65;;;;;;;7.20;100.00;102518.78;5042668;28;20547;-52
2022/09/21 06:10:23;;;;;;;8.32;4.00;;;;;;;7.34;100.00;102510.81;5032018;28;20189;-49
2022/09/21 06:12:48;;;;;;;5.68;3.33;;;;;;;7.68;100.00;102518.88;5032351;28;20194;-45
2022/09/21 06:15:14;;;;;;;4.20;3.22;;;;;;;7.94;100.00;102520.69;5040163;28;20203;-44
2022/09/21 06:17:40;;;;;;;5.63;3.10;;;;;;;8.24;100.00;102517.97;5041653;28;20202;-49
2022/09/21 06:20:07;;;;;;;3.47;2.78;;;;;;;8.47;100.00;102516.19;5044461;28;20203;-45
2022/09/21 06:22:33;;;;;;;6.53;3.38;;;;;;;8.46;100.00;102525.97;5044579;28;20237;-42
2022/09/21 06:24:58;;;;;;;4.07;2.90;;;;;;;8.52;99.54;102517.94;5043396;28;20317;-48
2022/09/21 06:27:24;;;;;;;4.93;3.38;;;;;;;8.43;99.56;102521.50;5040946;28;20175;-43
2022/09/21 06:29:49;;;;;;;4.43;3.38;;;;;;;8.63;99.62;102531.28;5041869;28;20209;-42
2022/09/21 06:32:15;;;;;;;8.70;3.83;;;;;;;8.89;99.36;102520.50;5044238;28;20186;-47
2022/09/21 06:34:41;;;;;;;3.78;3.33;;;;;;;9.13;98.98;102515.94;5045991;28;20207;-43
2022/09/21 06:37:07;;;;;;;8.68;4.03;;;;;;;9.24;98.88;102512.28;5027867;28;20179;-50
2022/09/21 06:39:33;;;;;;;4.57;3.65;;;;;;;9.45;98.86;102524.66;5050412;28;20260;-44
2022/09/21 06:41:58;;;;;;;8.80;3.70;;;;;;;9.69;98.55;102525.41;5047519;28;20194;-44
2022/09/21 06:44:24;;;;;;;4.57;3.50;;;;;;;9.84;98.22;102522.59;5047273;28;20167;-47
2022/09/21 06:46:50;;;;;;;5.88;3.28;;;;;;;10.10;97.60;102522.38;5048997;28;20199;-46
2022/09/21 06:49:15;;;;;;;3.08;2.78;;;;;;;10.40;96.98;102519.44;5046908;28;20217;-44
2022/09/21 06:51:41;;;;;;;6.05;4.05;;;;;;;10.66;96.16;102520.03;5049864;28;20244;-45
2022/09/21 06:54:07;;;;;;;5.53;3.85;;;;;;;10.95;95.68;102525.97;5048976;28;20188;-43
2022/09/21 06:56:32;;;;;;;3.67;3.38;;;;;;;11.24;95.32;102531.84;5038606;28;20397;-44
2022/09/21 06:58:58;;;;;;;5.00;3.80;;;;;;;11.48;95.19;102533.31;5045368;28;20565;-48
2022/09/21 07:01:23;;;;;;;3.67;3.38;;;;;;;11.73;94.43;102538.28;5045606;28;20525;-48
2022/09/21 07:03:50;;;;;;;4.93;3.90;;;;;;;11.98;94.01;102529.84;5036541;28;20183;-44
2022/09/21 07:06:17;;;;;;;5.30;3.60;;;;;;;12.25;93.09;102539.25;5041996;28;20726;-46
2022/09/21 07:08:43;;;;;;;7.43;3.72;;;;;;;12.20;92.12;102539.34;5045293;28;20696;-48
2022/09/21 07:11:09;;;;;;;4.30;3.60;;;;;;;12.53;91.88;102528.88;5044266;28;20222;-48
2022/09/21 07:13:35;;;;;;;4.32;3.85;;;;;;;12.75;91.61;102534.72;5040631;28;20196;-49
2022/09/21 07:16:06;;;;;;;4.82;3.83;;;;;;;12.98;91.18;102534.25;5040209;28;20670;-48
2022/09/21 07:18:37;;;;;;;6.78;4.70;;;;;;;13.15;90.83;102533.91;5042381;28;20257;-43
2022/09/21 07:21:04;;;;;;;4.88;4.38;;;;;;;13.33;90.51;102533.50;5042749;28;20486;-48
2022/09/21 07:23:31;;;;;;;5.88;4.80;;;;;;;13.63;90.06;102530.16;5043440;28;20187;-46
2022/09/21 07:26:04;;;;;;;6.68;4.50;;;;;;;13.91;89.34;102541.16;5045822;28;20271;-45
2022/09/21 07:28:29;;;;;;;6.93;4.50;;;;;;;14.15;88.46;102542.34;5034426;28;20200;-47
2022/09/21 07:30:56;;;;;;;7.55;5.25;;;;;;;14.19;87.02;102535.94;5036971;28;20678;-45
2022/09/21 07:33:23;;;;;;;8.35;4.78;;;;;;;14.33;87.10;102531.06;5040002;28;20263;-47
2022/09/21 07:35:57;;;;;;;5.03;4.50;;;;;;;14.38;86.45;102536.34;5034588;28;20234;-45
2022/09/21 07:38:23;;;;;;;4.78;3.40;;;;;;;14.69;85.94;102536.41;5039232;28;20194;-45
2022/09/21 07:40:49;;;;;;;3.50;3.20;;;;;;;14.20;85.63;102557.47;5041136;28;20192;-45
2022/09/21 07:43:14;;;;;;;3.88;3.13;;;;;;;14.14;85.69;102549.53;5036832;28;20195;-46
2022/09/21 07:45:40;;;;;;;5.00;4.30;;;;;;;14.33;85.61;102538.28;5037725;28;20278;-46
2022/09/21 07:48:07;;;;;;;4.57;3.70;;;;;;;14.56;85.23;102548.47;5033488;28;20633;-49
2022/09/21 07:50:33;;;;;;;5.25;3.83;;;;;;;14.85;84.29;102547.66;5044050;28;20175;-45
2022/09/21 07:53:00;;;;;;;6.65;3.20;;;;;;;15.16;83.03;102531.44;5039443;28;20283;-45
2022/09/21 07:55:26;;;;;;;4.82;3.25;;;;;;;15.03;82.90;102536.31;5040077;28;20310;-45
2022/09/21 08:00:37;;;;;;;7.47;3.00;;;;;;;14.95;84.17;102526.69;5037713;28;20192;-42
2022/09/21 08:03:03;;;;;;;3.72;3.05;;;;;;;14.77;84.34;102539.78;5038272;28;20196;-44
2022/09/21 08:05:30;;;;;;;6.00;3.30;;;;;;;14.73;84.94;102538.09;5040157;28;20176;-46
2022/09/21 08:07:55;;;;;;;3.72;3.10;;;;;;;14.84;84.50;102535.97;5059061;28;20172;-42
2022/09/21 08:10:22;;;;;;;3.88;2.75;;;;;;;14.67;84.12;102541.00;5043513;28;20176;-44
2022/09/21 08:12:47;;;;;;;2.95;2.58;;;;;;;14.76;83.97;102550.63;5044901;28;20254;-43
2022/09/21 08:15:13;;;;;;;3.00;2.28;;;;;;;15.46;82.55;102534.16;5035742;28;20328;-48
2022/09/21 08:17:39;;;;;;;3.83;1.95;;;;;;;15.15;81.47;102543.19;5043844;28;20172;-44
2022/09/21 08:20:05;;;;;;;3.83;2.00;;;;;;;15.44;81.27;102541.41;5038666;28;20250;-43
2022/09/21 08:22:31;;;;;;;4.88;2.47;;;;;;;15.44;80.58;102538.72;5036769;28;20576;-45
2022/09/21 08:24:56;;;;;;;7.20;2.75;;;;;;;15.57;80.58;102537.38;5040608;28;20291;-43
2022/09/21 08:27:24;;;;;;;6.03;2.55;;;;;;;15.78;80.75;102538.53;5038629;28;20179;-47
2022/09/21 08:29:50;;;;;;;8.68;2.30;;;;;;;15.57;80.16;102539.22;5036354;28;20691;-46
2022/09/21 08:32:16;;;;;;;2.35;1.70;;;;;;;15.60;79.04;102537.28;5042047;28;20188;-49
2022/09/21 08:34:42;;;;;;;2.75;1.60;;;;;;;15.43;78.91;102545.03;5044022;28;20628;-44
2022/09/21 08:37:07;;;;;;;2.15;1.85;;;;;;;15.32;77.90;102542.66;5042789;28;20230;-42
2022/09/21 08:39:33;;;;;;;2.80;1.88;;;;;;;15.64;79.47;102544.34;5044527;28;20199;-44
2022/09/21 08:42:05;;;;;;;3.80;1.90;;;;;;;15.92;78.11;102542.59;5040029;28;20179;-47
2022/09/21 08:44:50;;;;;;;2.08;1.20;;;;;;;15.88;76.96;102547.22;5043779;28;20716;-47
2022/09/21 08:47:18;;;;;;;1.60;0.93;;;;;;;15.48;77.04;102542.19;5046146;28;20194;-48
2022/09/21 08:49:49;;;;;;;1.73;0.90;;;;;;;15.69;76.96;102541.50;5035702;28;20222;-47
2022/09/21 08:52:18;;;;;;;1.20;0.90;;;;;;;15.79;77.79;102543.00;5038715;28;20626;-50
2022/09/21 08:54:43;;;;;;;1.05;0.70;;;;;;;15.51;77.34;102539.41;5041682;28;20215;-45
2022/09/21 08:57:13;;;;;;;3.53;1.00;;;;;;;15.45;77.70;102541.34;5045821;28;20654;-48
2022/09/21 08:59:49;;;;;;;0.93;0.55;;;;;;;15.65;77.30;102548.84;5035596;28;20292;-47
2022/09/21 09:02:52;;;;;;;1.00;0.63;;;;;;;16.35;76.35;102551.94;5036808;28;20188;-47
2022/09/21 09:05:42;;;;;;;0.57;0.40;;;;;;;16.66;74.58;102547.22;5036135;28;20578;-47
2022/09/21 09:08:10;;;;;;;0.80;0.50;;;;;;;16.52;73.50;102545.97;5040035;28;20292;-48
2022/09/21 09:10:44;;;;;;;1.23;0.43;;;;;;;16.81;72.78;102539.50;5042969;28;20191;-51
2022/09/21 09:13:41;;;;;;;1.85;0.50;;;;;;;16.79;71.51;102542.25;5033853;28;20197;-48
2022/09/21 09:16:29;;;;;;;1.63;0.30;;;;;;;16.67;70.46;102548.97;5030921;28;20200;-48
2022/09/21 09:19:06;;;;;;;1.13;0.40;;;;;;;16.32;71.73;102555.66;5036863;28;20203;-46
2022/09/21 09:21:37;;;;;;;0.68;0.35;;;;;;;16.58;70.90;102548.44;5037798;28;20241;-45
2022/09/21 09:24:02;;;;;;;0.57;0.30;;;;;;;16.42;70.65;102554.41;5037809;28;20183;-47
2022/09/21 09:26:50;;;;;;;0.93;0.60;;;;;;;16.47;71.23;102555.13;5034986;28;20191;-51
2022/09/21 09:29:41;;;;;;;1.13;0.50;;;;;;;17.04;70.23;102547.66;5033992;28;20208;-47
2022/09/21 09:32:13;;;;;;;4.63;0.75;;;;;;;16.96;70.59;102552.47;5026797;28;20199;-47
2022/09/21 09:34:48;;;;;;;1.35;0.70;;;;;;;17.41;71.14;102548.94;5040143;28;20218;-47
2022/09/21 09:37:16;;;;;;;1.23;0.70;;;;;;;17.21;71.84;102547.00;5040297;28;20202;-48
2022/09/21 09:39:46;;;;;;;1.98;0.60;;;;;;;17.53;70.75;102547.56;5036631;28;20207;-48
2022/09/21 09:42:41;;;;;;;5.60;0.70;;;;;;;17.02;70.54;102549.53;5033721;28;20175;-48
2022/09/21 09:45:32;;;;;;;0.88;0.68;;;;;;;17.12;70.94;102551.88;5034440;28;20227;-47
2022/09/21 09:48:03;;;;;;;1.20;0.57;;;;;;;17.63;69.32;102548.97;5043932;28;20663;-46
2022/09/21 09:50:34;;;;;;;1.67;0.55;;;;;;;17.26;69.86;102547.72;5039599;28;20290;-49
2022/09/21 09:53:13;;;;;;;1.58;0.88;;;;;;;16.29;70.40;102561.19;5039299;28;20259;-48
2022/09/21 09:55:51;;;;;;;1.13;0.70;;;;;;;16.21;71.87;102568.66;5035226;28;20215;-51
2022/09/21 09:58:19;;;;;;;1.85;0.63;;;;;;;15.90;70.96;102567.00;5034382;28;20195;-46
2022/09/21 10:00:46;;;;;;;2.85;0.98;;;;;;;15.99;69.65;102557.69;5031223;28;20198;-47
2022/09/21 10:03:21;;;;;;;2.83;0.80;;;;;;;17.25;68.92;102551.38;5036603;28;20180;-48
2022/09/21 10:05:47;;;;;;;1.83;0.80;;;;;;;17.29;66.60;102547.59;5039928;28;20286;-50
2022/09/21 10:08:38;;;;;;;0.60;0.60;;;;;;;17.68;66.72;102556.91;5037917;28;20278;-50
2022/09/21 10:11:04;;;;;;;2.13;0.55;;;;;;;17.59;63.34;102550.03;5037100;28;20203;-48
2022/09/21 10:13:32;;;;;;;1.30;0.60;;;;;;;17.22;63.52;102546.06;5029969;28;20184;-51
2022/09/21 10:16:05;;;;;;;1.15;0.43;;;;;;;17.13;63.32;102550.97;5031861;28;20294;-49
2022/09/21 10:18:57;;;;;;;0.65;0.50;;;;;;;16.80;63.19;102554.00;5036422;28;20211;-46
2022/09/21 10:21:35;;;;;;;0.82;0.50;;;;;;;16.64;66.04;102553.66;5038455;28;20182;-48
2022/09/21 10:24:11;;;;;;;0.40;0.40;;;;;;;17.51;65.35;102549.44;5033014;28;20258;-46
2022/09/21 10:26:44;;;;;;;4.03;0.70;;;;;;;17.26;65.44;102546.84;5036291;28;20192;-46
2022/09/21 10:29:30;;;;;;;1.70;0.65;;;;;;;16.91;65.75;102551.75;5034109;28;20289;-49
2022/09/21 10:32:15;;;;;;;0.50;0.50;;;;;;;16.82;66.42;102542.16;5042381;28;20182;-47
2022/09/21 10:35:00;;;;;;;0.60;0.60;;;;;;;16.08;67.57;102548.38;5042794;28;20701;-49
2022/09/21 10:37:33;;;;;;;1.65;0.40;;;;;;;16.18;67.97;102539.00;5070717;28;20188;-49
2022/09/21 10:39:59;;;;;;;2.15;0.60;;;;;;;16.30;68.13;102541.28;5038864;28;20342;-47
2022/09/21 10:42:28;;;;;;;1.70;0.40;;;;;;;16.67;68.13;102538.16;5035941;28;20263;-48
2022/09/21 10:45:15;;;;;;;0.60;0.60;;;;;;;16.40;64.69;102545.47;5041660;28;20168;-47
2022/09/21 10:47:45;;;;;;;1.33;0.63;;;;;;;16.12;67.07;102544.66;5039339;28;20199;-45
2022/09/21 10:50:29;;;;;;;0.50;0.50;;;;;;;16.18;66.01;102536.31;5043786;28;20556;-46
2022/09/21 10:53:22;;;;;;;0.50;0.43;;;;;;;16.20;66.35;102537.13;5040265;28;20194;-45
2022/09/21 10:56:05;;;;;;;0.63;0.60;;;;;;;16.33;65.58;102532.19;5043519;28;20183;-47
2022/09/21 10:58:32;;;;;;;1.20;0.40;;;;;;;16.34;64.38;102525.84;5037383;28;20314;-47
2022/09/21 11:01:22;;;;;;;0.90;0.50;;;;;;;16.38;64.53;102533.81;5040932;28;20202;-43
2022/09/21 11:04:04;;;;;;;0.75;0.20;;;;;;;16.27;62.98;102525.19;5033520;28;20365;-45
2022/09/21 11:06:36;;;;;;;0.30;0.30;;;;;;;16.09;64.58;102529.38;5043080;28;20462;-44
2022/09/21 11:09:11;;;;;;;1.67;0.30;;;;;;;16.03;64.62;102529.63;5041539;28;20277;-45
2022/09/21 11:11:42;;;;;;;0.75;0.50;;;;;;;15.84;63.75;102519.41;5042133;28;20658;-45
2022/09/21 11:14:26;;;;;;;1.00;0.30;;;;;;;16.01;62.59;102521.56;5041355;28;20218;-45
2022/09/21 11:16:59;;;;;;;0.28;0.28;;;;;;;16.24;60.96;102517.16;5044095;28;20183;-44
2022/09/21 11:19:35;;;;;;;0.75;0.20;;;;;;;16.27;57.91;102525.19;5040275;28;20199;-44
2022/09/21 11:22:30;;;;;;;0.80;0.28;;;;;;;16.05;59.78;102528.63;5059546;28;20191;-44
2022/09/21 11:25:29;;;;;;;1.70;0.30;;;;;;;15.99;59.67;102523.44;5042860;28;20266;-41
2022/09/21 11:28:03;;;;;;;1.13;0.30;;;;;;;15.92;59.12;102523.66;5040387;28;20188;-44
2022/09/21 11:30:58;;;;;;;0.95;0.65;;;;;;;15.94;62.28;102530.81;5047289;28;20252;-43
2022/09/21 11:34:06;;;;;;;0.47;0.47;;;;;;;16.15;62.96;102529.19;5032069;28;20207;-46
2022/09/21 11:36:31;;;;;;;0.75;0.65;;;;;;;15.97;63.59;102535.22;5041065;28;20207;-43
2022/09/21 11:39:08;;;;;;;0.77;0.60;;;;;;;15.85;65.25;102528.41;5035597;28;20219;-44
2022/09/21 11:41:49;;;;;;;0.68;0.50;;;;;;;15.89;67.14;102538.19;5040909;28;20192;-45
2022/09/21 11:44:17;;;;;;;1.40;0.30;;;;;;;16.06;67.40;102533.09;5036510;28;20573;-46
2022/09/21 11:47:12;;;;;;;1.38;0.57;;;;;;;16.02;66.67;102528.72;5037166;28;20667;-45
2022/09/21 11:49:47;;;;;;;0.55;0.35;;;;;;;16.01;65.16;102535.06;5029111;28;20650;-44